Rochester, Minnesota
Current Conditions -  °F | °C
As of 5:54 AM on Sunday 23 Nov 2014 (Local Time) from KRST Reporting Station
Haze Haze  
Wind Chill: 43°   Ceiling: 400
Heat Index: 49°   Visibility: 5mi
Dew Point: 47°   Wind: 16mph
Humidity: 93%   Direction: 180°S
Pressure: 29.51"   Gusts: 25mph
Location:  44.02°N, 92.46°W
Report Text: KRST 231154Z 18014G22KT 5SM BR OVC004 09/08 A2951 RMK AO2 SLP999 70001 T00940083 10094 20089 56008
Loading
Personal Weather Stations






























Interactive Weather Map New forecast layout! Learn more

10-Day Weather Forecast

Advertisements
Track Severe Weather on mobile